M I D A S
Marine Information and Data Acquisition System
Tripno 227 of the Zeeleeuw from 2002-03-21 08:06:56 to 2002-03-21 14:39:55
Back to CruiseResearch ActivitiesStationsMapUnderway DataData graphs

EquipmentUnitsComments
TimeDGPSUTC
LatitudeDGPSDM.mWGS84
LongitudeDGPSDM.mWGS84
SpeedMeteo Stationm/sRelative wind speed
DirectionMeteo StationdegRelative wind direction
TemperatureMeteo Stationdeg CelciusAir temperature
PressureMeteo StationPaAtmospheric pressure
HumidityMeteo Station%Relative humidity
Missing or incorrect values are displayed as -999
Metereological data collected by the RV Zeeleeuw from 2002-03-21 08:06:56 to 2002-03-21 14:39:55
                                                                                    Next 1000 lines
Time Latitude Longitude Speed Direction Temperature Pressure Humidity
2002-03-21 09:07:06 51°14.124 2°53.686 18 228 10.5 101780 90
2002-03-21 09:07:11 51°14.114 2°53.663 17.9 228 10.5 101780 90
2002-03-21 09:07:16 51°14.106 2°53.639 17.5 230 10.5 101790 90
2002-03-21 09:07:22 51°14.095 2°53.612 16.8 229 10.5 101790 90
2002-03-21 09:07:26 51°14.089 2°53.593 17.9 226 10.4 101780 90
2002-03-21 09:07:31 51°14.08 2°53.57 16 229 10.4 101780 90
2002-03-21 09:07:36 51°14.071 2°53.546 18.6 229 10.4 101780 90
2002-03-21 09:07:41 51°14.063 2°53.523 18.6 229 10.4 101780 90
2002-03-21 09:07:46 51°14.055 2°53.5 17.8 228 10.4 101780 90
2002-03-21 09:07:51 51°14.046 2°53.476 17.2 231 10.4 101780 90
2002-03-21 09:07:56 51°14.038 2°53.453 16.6 228 10.4 101780 90
2002-03-21 09:08:02 51°14.027 2°53.425 17.4 230 10.4 101780 90
2002-03-21 09:08:06 51°14.021 2°53.406 17.1 226 10.4 101780 90
2002-03-21 09:08:11 51°14.012 2°53.383 16.7 227 10.4 101780 90
2002-03-21 09:08:16 51°14.004 2°53.36 18.4 230 10.4 101790 90
2002-03-21 09:08:22 51°13.994 2°53.331 17 232 10.4 101790 90
2002-03-21 09:08:26 51°13.986 2°53.313 18.6 228 10.4 101790 90
2002-03-21 09:08:32 51°13.977 2°53.285 16.4 226 10.4 101790 90
2002-03-21 09:08:36 51°13.969 2°53.266 16.3 226 10.4 101790 91
2002-03-21 09:08:42 51°13.959 2°53.238 15.9 226 10.4 101790 91
2002-03-21 09:08:46 51°13.952 2°53.22 17.3 228 10.4 101780 91
2002-03-21 09:08:51 51°13.944 2°53.197 17.4 229 10.4 101780 91
2002-03-21 09:08:56 51°13.935 2°53.174 16.9 227 10.4 101790 91
2002-03-21 09:09:02 51°13.924 2°53.147 18.3 229 10.4 101790 91
2002-03-21 09:09:06 51°13.917 2°53.128 16.7 227 10.4 101770 91
2002-03-21 09:09:12 51°13.907 2°53.1 16.2 227 10.4 101770 91
2002-03-21 09:09:16 51°13.9 2°53.081 16.7 225 10.4 101790 91
2002-03-21 09:09:21 51°13.891 2°53.058 17 229 10.4 101790 91
2002-03-21 09:09:26 51°13.882 2°53.035 15.9 227 10.4 101790 91
2002-03-21 09:09:31 51°13.874 2°53.012 16.2 230 10.4 101790 91
2002-03-21 09:09:36 51°13.864 2°52.989 18.5 225 10.4 101770 91
2002-03-21 09:09:42 51°13.854 2°52.96 18.7 227 10.4 101770 91
2002-03-21 09:09:46 51°13.846 2°52.941 17.4 227 10.4 101780 91
2002-03-21 09:09:51 51°13.837 2°52.917 17.6 229 10.4 101780 91
2002-03-21 09:09:56 51°13.828 2°52.892 17.5 228 10.4 101780 91
2002-03-21 09:10:01 51°13.819 2°52.867 18 231 10.4 101780 91
2002-03-21 09:10:06 51°13.809 2°52.842 19.3 225 10.4 101790 91
2002-03-21 09:10:11 51°13.8 2°52.817 18.7 233 10.4 101790 91
2002-03-21 09:10:16 51°13.79 2°52.792 17.3 227 10.4 101780 91
2002-03-21 09:10:22 51°13.779 2°52.761 17.8 225 10.4 101780 91
2002-03-21 09:10:27 51°13.769 2°52.736 19.5 228 10.4 101780 91
2002-03-21 09:10:31 51°13.762 2°52.715 18.1 226 10.4 101780 91
2002-03-21 09:10:36 51°13.752 2°52.689 19.5 229 10.4 101790 91
2002-03-21 09:10:42 51°13.74 2°52.658 19.5 226 10.4 101790 91
2002-03-21 09:10:46 51°13.733 2°52.638 16.9 228 10.4 101780 91
2002-03-21 09:10:51 51°13.723 2°52.612 17.9 227 10.4 101780 91
2002-03-21 09:10:56 51°13.713 2°52.586 17.7 227 10.4 101790 91
2002-03-21 09:11:02 51°13.701 2°52.555 18.5 229 10.4 101790 91
2002-03-21 09:11:06 51°13.693 2°52.535 19.5 316 10.3 101780 91
2002-03-21 09:11:12 51°13.682 2°52.503 18.5 227 10.3 101780 91
2002-03-21 09:11:16 51°13.674 2°52.483 18.6 225 10.4 101780 91
2002-03-21 09:11:21 51°13.664 2°52.457 16.5 227 10.4 101780 91
2002-03-21 09:11:26 51°13.654 2°52.431 17.1 227 10.4 101780 91
2002-03-21 09:11:32 51°13.643 2°52.399 17.8 227 10.4 101780 91
2002-03-21 09:11:36 51°13.635 2°52.379 17.5 229 10.4 101780 91
2002-03-21 09:11:40 51°13.627 2°52.358 17.6 228 10.4 101780 91
2002-03-21 09:11:46 51°13.615 2°52.327 18.1 227 10.4 101770 91
2002-03-21 09:11:51 51°13.606 2°52.301 20.1 225 10.4 101770 91
2002-03-21 09:11:56 51°13.596 2°52.275 19.2 226 10.4 101770 91
2002-03-21 09:12:02 51°13.584 2°52.244 18.2 227 10.4 101770 91
2002-03-21 09:12:06 51°13.576 2°52.223 17.3 227 10.4 101770 91
2002-03-21 09:12:12 51°13.564 2°52.192 18.1 226 10.4 101770 91
2002-03-21 09:12:16 51°13.557 2°52.171 18.5 224 10.4 101780 91
2002-03-21 09:12:20 51°13.549 2°52.151 18.2 229 10.4 101780 91
2002-03-21 09:12:26 51°13.537 2°52.12 16.5 226 10.4 101780 91
2002-03-21 09:12:31 51°13.527 2°52.094 16.9 225 10.4 101780 91
2002-03-21 09:12:36 51°13.517 2°52.069 17.5 223 10.4 101780 91
2002-03-21 09:12:42 51°13.505 2°52.038 17.2 225 10.4 101780 91
2002-03-21 09:12:46 51°13.497 2°52.018 18.3 223 10.4 101780 91
2002-03-21 09:12:51 51°13.487 2°51.993 17.5 222 10.4 101780 91
2002-03-21 09:12:56 51°13.476 2°51.968 15.5 222 10.3 101780 91
2002-03-21 09:13:01 51°13.465 2°51.944 15.9 222 10.3 101780 91
2002-03-21 09:13:06 51°13.454 2°51.92 15.8 224 10.3 101790 91
2002-03-21 09:13:11 51°13.443 2°51.895 16.9 230 10.3 101790 91
2002-03-21 09:13:16 51°13.432 2°51.871 16.6 225 10.3 101770 91
2002-03-21 09:13:20 51°13.425 2°51.85 16.7 225 10.3 101770 91
2002-03-21 09:13:26 51°13.413 2°51.82 17.1 230 10.3 101780 91
2002-03-21 09:13:31 51°13.402 2°51.794 17.2 223 10.3 101780 91
2002-03-21 09:13:36 51°13.393 2°51.768 15.9 225 10.3 101780 91
2002-03-21 09:13:41 51°13.383 2°51.743 16.1 228 10.3 101780 91
2002-03-21 09:13:46 51°13.373 2°51.717 15.6 224 10.3 101780 91
2002-03-21 09:13:51 51°13.364 2°51.69 18.6 229 10.3 101780 91
2002-03-21 09:13:56 51°13.354 2°51.665 17.3 224 10.3 101780 91
2002-03-21 09:14:01 51°13.345 2°51.638 18.8 231 10.3 101780 91
2002-03-21 09:14:06 51°13.335 2°51.613 16.2 230 10.3 101790 91
2002-03-21 09:14:12 51°13.323 2°51.582 17.4 227 10.3 101790 91
2002-03-21 09:14:16 51°13.315 2°51.561 15.3 226 10.3 101780 91
2002-03-21 09:14:22 51°13.303 2°51.531 18.8 225 10.3 101780 91
2002-03-21 09:14:26 51°13.295 2°51.51 18.1 230 10.3 101790 91
2002-03-21 09:14:31 51°13.285 2°51.485 16.8 230 10.3 101790 91
2002-03-21 09:14:36 51°13.275 2°51.459 15.7 227 10.3 101780 91
2002-03-21 09:14:41 51°13.265 2°51.434 15 226 10.3 101780 91
2002-03-21 09:14:46 51°13.255 2°51.408 16.5 226 10.3 101780 91
2002-03-21 09:14:51 51°13.245 2°51.382 16.8 227 10.3 101780 91
2002-03-21 09:14:56 51°13.235 2°51.357 17.1 226 10.3 101790 91
2002-03-21 09:15:01 51°13.225 2°51.331 16.4 227 10.3 101790 91
2002-03-21 09:15:06 51°13.215 2°51.305 15.1 228 10.3 101800 91
2002-03-21 09:15:11 51°13.204 2°51.281 15.9 226 10.3 101800 91
2002-03-21 09:15:16 51°13.195 2°51.254 16.5 227 10.3 101790 91
2002-03-21 09:15:21 51°13.184 2°51.229 17 226 10.3 101790 91
2002-03-21 09:15:27 51°13.173 2°51.198 17.5 228 10.3 101780 91
2002-03-21 09:15:31 51°13.164 2°51.178 16.5 227 10.3 101780 91
2002-03-21 09:15:36 51°13.154 2°51.152 17.7 226 10.3 101780 91
2002-03-21 09:15:41 51°13.144 2°51.126 17.5 225 10.3 101780 91
2002-03-21 09:15:46 51°13.134 2°51.1 17.3 134 10.3 101770 91
2002-03-21 09:15:51 51°13.125 2°51.075 15.6 230 10.3 101770 91
2002-03-21 09:15:55 51°13.116 2°51.054 16.7 227 10.2 101790 91
2002-03-21 09:16:01 51°13.104 2°51.023 17.3 228 10.2 101790 91
2002-03-21 09:16:06 51°13.095 2°50.997 16.6 226 10.3 101790 91
2002-03-21 09:16:12 51°13.082 2°50.966 18.2 225 10.3 101790 91
2002-03-21 09:16:16 51°13.075 2°50.946 16.6 228 10.3 101790 92
2002-03-21 09:16:22 51°13.062 2°50.915 16.4 225 10.3 101790 92
2002-03-21 09:16:26 51°13.055 2°50.894 16.9 226 10.3 101790 92
2002-03-21 09:16:31 51°13.044 2°50.869 16.6 225 10.3 101790 92
2002-03-21 09:16:36 51°13.035 2°50.842 17.1 135 10.2 101790 92
2002-03-21 09:16:40 51°13.026 2°50.822 15.3 224 10.2 101790 92
2002-03-21 09:16:46 51°13.014 2°50.791 16.6 228 10.2 101790 92
2002-03-21 09:16:51 51°13.004 2°50.765 16.3 229 10.2 101790 92
2002-03-21 09:16:56 51°12.994 2°50.74 15.5 225 10.2 101790 92
2002-03-21 09:17:02 51°12.982 2°50.709 16.5 228 10.2 101790 92
2002-03-21 09:17:06 51°12.974 2°50.688 16.1 226 10.2 101790 92
2002-03-21 09:17:11 51°12.964 2°50.662 17 227 10.2 101790 92
2002-03-21 09:17:16 51°12.953 2°50.637 15.7 226 10.2 101790 92
2002-03-21 09:17:22 51°12.942 2°50.605 15.5 225 10.2 101790 92
2002-03-21 09:17:26 51°12.933 2°50.586 15.6 229 10.2 101790 92
2002-03-21 09:17:31 51°12.923 2°50.56 15.2 227 10.2 101790 92
2002-03-21 09:17:36 51°12.913 2°50.534 15.7 228 10.2 101800 92
2002-03-21 09:17:42 51°12.9 2°50.503 14.8 230 10.2 101800 92
2002-03-21 09:17:46 51°12.893 2°50.483 15.4 226 10.2 101790 92
2002-03-21 09:17:51 51°12.882 2°50.457 15.4 227 10.2 101790 92
2002-03-21 09:17:56 51°12.873 2°50.43 15.6 230 10.2 101780 92
2002-03-21 09:18:02 51°12.86 2°50.4 16.9 227 10.2 101780 92
2002-03-21 09:18:06 51°12.853 2°50.379 17.8 229 10.2 101790 92
2002-03-21 09:18:11 51°12.842 2°50.354 16.8 231 10.2 101790 92
2002-03-21 09:18:16 51°12.832 2°50.328 15.8 228 10.2 101780 92
2002-03-21 09:18:22 51°12.82 2°50.297 16.5 228 10.2 101780 92
2002-03-21 09:18:26 51°12.812 2°50.276 16.4 230 10.2 101790 92
2002-03-21 09:18:32 51°12.8 2°50.246 16 228 10.2 101790 92
2002-03-21 09:18:36 51°12.792 2°50.225 16.5 227 10.2 101780 92
2002-03-21 09:18:42 51°12.78 2°50.193 14.3 227 10.2 101780 92
2002-03-21 09:18:46 51°12.772 2°50.173 17.8 228 10.2 101780 92
2002-03-21 09:18:51 51°12.763 2°50.147 15.8 228 10.2 101780 92
2002-03-21 09:18:56 51°12.753 2°50.121 15.5 225 10.2 101790 92
2002-03-21 09:19:02 51°12.741 2°50.09 15.3 228 10.2 101790 92
2002-03-21 09:19:06 51°12.732 2°50.07 16.2 226 10.2 101790 92
2002-03-21 09:19:11 51°12.723 2°50.044 13.7 227 10.2 101790 92
2002-03-21 09:19:15 51°12.714 2°50.023 15.5 227 10.2 101790 92
2002-03-21 09:19:21 51°12.703 2°49.992 15.3 230 10.2 101790 92
2002-03-21 09:19:26 51°12.692 2°49.966 15.1 228 10.2 101790 92
2002-03-21 09:19:31 51°12.682 2°49.94 17.7 232 10.2 101790 92
2002-03-21 09:19:36 51°12.673 2°49.914 15.6 226 10.2 101790 92
2002-03-21 09:19:42 51°12.661 2°49.883 13.8 227 10.2 101790 92
2002-03-21 09:19:46 51°12.652 2°49.863 14.2 228 10.2 101790 92
2002-03-21 09:19:51 51°12.643 2°49.836 15.7 236 10.2 101790 92
2002-03-21 09:19:56 51°12.633 2°49.811 16.3 234 10.2 101800 92
2002-03-21 09:20:01 51°12.622 2°49.785 15.4 228 10.2 101800 92
2002-03-21 09:20:06 51°12.612 2°49.758 16.3 230 10.2 101780 92
2002-03-21 09:20:11 51°12.602 2°49.733 16 231 10.2 101780 92
2002-03-21 09:20:16 51°12.591 2°49.707 17.4 232 10.2 101780 92
2002-03-21 09:20:21 51°12.581 2°49.681 17.2 233 10.2 101780 92
2002-03-21 09:20:26 51°12.571 2°49.655 17 231 10.2 101780 92
2002-03-21 09:20:31 51°12.561 2°49.629 15.7 228 10.2 101780 92
2002-03-21 09:20:36 51°12.55 2°49.603 15.2 229 10.2 101770 92
2002-03-21 09:20:42 51°12.538 2°49.572 17.6 230 10.2 101770 92
2002-03-21 09:20:46 51°12.53 2°49.552 17.4 230 10.2 101790 92
2002-03-21 09:20:51 51°12.52 2°49.525 16.5 228 10.2 101790 92
2002-03-21 09:20:56 51°12.509 2°49.499 15.8 226 10.2 101790 92
2002-03-21 09:21:02 51°12.497 2°49.468 16.2 229 10.2 101790 92
2002-03-21 09:21:06 51°12.489 2°49.447 15.1 229 10.2 101800 92
2002-03-21 09:21:11 51°12.479 2°49.421 16.9 232 10.2 101800 92
2002-03-21 09:21:16 51°12.468 2°49.396 16.2 228 10.2 101790 92
2002-03-21 09:21:22 51°12.456 2°49.364 16.8 228 10.2 101790 92
2002-03-21 09:21:26 51°12.447 2°49.344 17.9 230 10.2 101780 92
2002-03-21 09:21:32 51°12.435 2°49.313 16.9 231 10.2 101780 92
2002-03-21 09:21:36 51°12.427 2°49.291 16.6 229 10.2 101770 92
2002-03-21 09:21:41 51°12.416 2°49.266 15.9 231 10.2 101770 92
2002-03-21 09:21:46 51°12.406 2°49.24 15.9 229 10.2 101780 92
2002-03-21 09:21:50 51°12.398 2°49.219 17 235 10.2 101780 92
2002-03-21 09:21:57 51°12.385 2°49.182 17.3 227 10.2 101770 92
2002-03-21 09:22:02 51°12.376 2°49.155 15.9 232 10.2 101770 92
2002-03-21 09:22:06 51°12.368 2°49.134 17 228 10.2 101790 92
2002-03-21 09:22:11 51°12.36 2°49.106 16.4 237 10.2 101790 92
2002-03-21 09:22:16 51°12.352 2°49.079 17.1 234 10.2 101780 92
2002-03-21 09:22:22 51°12.341 2°49.046 16.7 233 10.2 101780 92
2002-03-21 09:22:26 51°12.335 2°49.024 18.2 232 10.3 101790 92
2002-03-21 09:22:31 51°12.326 2°48.997 18.3 228 10.3 101790 92
2002-03-21 09:22:36 51°12.318 2°48.969 17.5 235 10.3 101790 92
2002-03-21 09:22:42 51°12.308 2°48.936 16.6 232 10.3 101790 92
2002-03-21 09:22:46 51°12.3 2°48.915 18.8 230 10.3 101780 92
2002-03-21 09:22:51 51°12.292 2°48.887 16.9 235 10.3 101780 92
2002-03-21 09:22:56 51°12.283 2°48.86 18 233 10.3 101770 92
2002-03-21 09:23:02 51°12.273 2°48.828 17.3 229 10.3 101770 92
2002-03-21 09:23:06 51°12.265 2°48.806 18.8 233 10.3 101780 92
2002-03-21 09:23:12 51°12.255 2°48.773 17.3 237 10.3 101780 92
2002-03-21 09:23:16 51°12.247 2°48.752 17.9 229 10.3 101790 92
2002-03-21 09:23:20 51°12.241 2°48.73 16.7 232 10.3 101790 92
2002-03-21 09:23:26 51°12.23 2°48.698 17 230 10.3 101790 92
2002-03-21 09:23:31 51°12.221 2°48.671 16.9 232 10.3 101790 92
2002-03-21 09:23:36 51°12.212 2°48.644 15.8 235 10.3 101800 92
2002-03-21 09:23:41 51°12.202 2°48.617 15.4 229 10.3 101800 92
2002-03-21 09:23:46 51°12.194 2°48.589 16.7 230 10.3 101790 92
2002-03-21 09:23:51 51°12.184 2°48.563 16.9 230 10.3 101790 92
2002-03-21 09:23:56 51°12.176 2°48.535 17.1 234 10.3 101790 92
2002-03-21 09:24:01 51°12.167 2°48.508 17.9 229 10.3 101790 92
2002-03-21 09:24:06 51°12.158 2°48.481 16.1 230 10.3 101790 92
2002-03-21 09:24:11 51°12.149 2°48.453 17 231 10.3 101790 92
2002-03-21 09:24:16 51°12.14 2°48.426 16.2 227 10.3 101790 92
2002-03-21 09:24:22 51°12.13 2°48.393 16.2 232 10.3 101790 92
2002-03-21 09:24:26 51°12.123 2°48.371 17.4 230 10.3 101790 92
2002-03-21 09:24:31 51°12.114 2°48.344 17.6 232 10.3 101790 92
2002-03-21 09:24:36 51°12.105 2°48.316 15.9 230 10.3 101790 92
2002-03-21 09:24:42 51°12.094 2°48.284 17.3 231 10.3 101790 92
2002-03-21 09:24:46 51°12.087 2°48.262 16.5 227 10.3 101790 92
2002-03-21 09:24:52 51°12.076 2°48.229 16.4 231 10.3 101790 92
2002-03-21 09:24:56 51°12.069 2°48.207 15.5 232 10.3 101780 92
2002-03-21 09:25:02 51°12.058 2°48.175 17 227 10.3 101780 92
2002-03-21 09:25:06 51°12.051 2°48.153 15.7 232 10.3 101790 92
2002-03-21 09:25:12 51°12.04 2°48.12 17.2 231 10.3 101790 92
2002-03-21 09:25:16 51°12.033 2°48.098 17.3 229 10.3 101790 92
2002-03-21 09:25:22 51°12.022 2°48.066 15.1 230 10.3 101790 92
2002-03-21 09:25:26 51°12.015 2°48.044 16.2 232 10.3 101780 92
2002-03-21 09:25:32 51°12.004 2°48.011 18.3 230 10.3 101780 92
2002-03-21 09:25:36 51°11.997 2°47.989 18.5 227 10.3 101780 92
2002-03-21 09:25:41 51°11.989 2°47.961 16.9 231 10.3 101780 92
2002-03-21 09:25:46 51°11.979 2°47.935 16.2 227 10.3 101800 92
2002-03-21 09:25:51 51°11.971 2°47.907 17.6 227 10.3 101800 92
2002-03-21 09:25:56 51°11.962 2°47.88 15.2 230 10.3 101800 92
2002-03-21 09:26:01 51°11.953 2°47.853 17.2 232 10.3 101800 92
2002-03-21 09:26:06 51°11.945 2°47.825 15.4 233 10.3 101790 92
2002-03-21 09:26:11 51°11.935 2°47.798 17.2 230 10.3 101790 92
2002-03-21 09:26:16 51°11.927 2°47.771 16 230 10.3 101790 92
2002-03-21 09:26:22 51°11.916 2°47.738 15.5 234 10.3 101790 92
2002-03-21 09:26:26 51°11.908 2°47.716 17.1 230 10.3 101790 92
2002-03-21 09:26:32 51°11.898 2°47.683 16.8 228 10.3 101790 92
2002-03-21 09:26:36 51°11.891 2°47.661 18.1 231 10.3 101800 92
2002-03-21 09:26:42 51°11.88 2°47.628 16.2 231 10.3 101800 92
2002-03-21 09:26:46 51°11.873 2°47.607 16.5 231 10.3 101780 92
2002-03-21 09:26:52 51°11.863 2°47.574 17.2 229 10.3 101780 92
2002-03-21 09:26:56 51°11.855 2°47.552 16.3 230 10.3 101790 92
2002-03-21 09:27:01 51°11.847 2°47.525 18.7 229 10.3 101790 92
2002-03-21 09:27:06 51°11.838 2°47.497 17.4 228 10.3 101790 92
2002-03-21 09:27:11 51°11.829 2°47.47 18.1 231 10.3 101790 92
2002-03-21 09:27:16 51°11.82 2°47.442 16.3 231 10.3 101800 92
2002-03-21 09:27:21 51°11.811 2°47.415 15.5 227 10.3 101800 92
2002-03-21 09:27:26 51°11.803 2°47.388 18 229 10.3 101790 92
2002-03-21 09:27:31 51°11.794 2°47.361 18 232 10.3 101790 92
2002-03-21 09:27:36 51°11.785 2°47.333 16.3 227 10.3 101800 92
2002-03-21 09:27:41 51°11.777 2°47.306 16.7 234 10.3 101800 92
2002-03-21 09:27:46 51°11.767 2°47.279 18.2 228 10.3 101800 92
2002-03-21 09:27:51 51°11.759 2°47.251 17.2 230 10.3 101800 92
2002-03-21 09:27:56 51°11.75 2°47.224 16.3 231 10.3 101800 92
2002-03-21 09:28:02 51°11.739 2°47.191 16.8 227 10.3 101800 92
2002-03-21 09:28:06 51°11.732 2°47.168 16.9 231 10.3 101800 92
2002-03-21 09:28:11 51°11.723 2°47.141 16.2 230 10.3 101800 92
2002-03-21 09:28:16 51°11.715 2°47.114 17 232 10.3 101790 92
2002-03-21 09:28:22 51°11.704 2°47.081 16.9 231 10.3 101790 92
2002-03-21 09:28:26 51°11.697 2°47.059 16.8 230 10.3 101790 92
2002-03-21 09:28:32 51°11.687 2°47.026 15.7 229 10.3 101790 92
2002-03-21 09:28:36 51°11.679 2°47.004 17.9 229 10.3 101800 92
2002-03-21 09:28:42 51°11.669 2°46.971 17.3 229 10.3 101800 92
2002-03-21 09:28:46 51°11.662 2°46.95 17.3 231 10.3 101790 92
2002-03-21 09:28:52 51°11.651 2°46.917 17.5 231 10.3 101790 92
2002-03-21 09:28:56 51°11.643 2°46.895 16.3 229 10.3 101810 92
2002-03-21 09:29:01 51°11.635 2°46.867 17.5 228 10.3 101810 92
2002-03-21 09:29:06 51°11.626 2°46.84 16.4 232 10.3 101790 92
2002-03-21 09:29:11 51°11.617 2°46.813 15.8 230 10.3 101790 92
2002-03-21 09:29:16 51°11.609 2°46.785 17.1 232 10.3 101800 92
2002-03-21 09:29:21 51°11.6 2°46.758 16.1 231 10.3 101800 92
2002-03-21 09:29:26 51°11.591 2°46.73 14.7 228 10.3 101790 92
2002-03-21 09:29:31 51°11.583 2°46.703 17.7 232 10.3 101790 92
2002-03-21 09:29:36 51°11.574 2°46.675 16.5 233 10.3 101800 92
2002-03-21 09:29:41 51°11.566 2°46.646 15.9 233 10.3 101800 92
2002-03-21 09:29:46 51°11.558 2°46.619 16.5 233 10.3 101800 92
2002-03-21 09:29:51 51°11.551 2°46.59 15.9 233 10.3 101800 92
2002-03-21 09:29:57 51°11.542 2°46.555 16.4 234 10.3 101800 92
2002-03-21 09:30:02 51°11.535 2°46.526 16 233 10.3 101800 92
2002-03-21 09:30:06 51°11.53 2°46.503 15.4 234 10.3 101800 92
2002-03-21 09:30:12 51°11.522 2°46.468 16.3 232 10.3 101800 92
2002-03-21 09:30:16 51°11.517 2°46.445 16.4 228 10.3 101800 92
2002-03-21 09:30:20 51°11.512 2°46.421 16.6 231 10.3 101800 92
2002-03-21 09:30:26 51°11.504 2°46.386 16.1 234 10.3 101790 92
2002-03-21 09:30:31 51°11.497 2°46.357 16.8 230 10.3 101790 92
2002-03-21 09:30:36 51°11.49 2°46.328 17.4 234 10.3 101790 92
2002-03-21 09:30:42 51°11.481 2°46.294 17.1 230 10.3 101790 92
2002-03-21 09:30:46 51°11.476 2°46.27 16.4 232 10.3 101810 92
2002-03-21 09:30:51 51°11.469 2°46.241 17.1 231 10.3 101810 92
2002-03-21 09:30:56 51°11.462 2°46.212 16.4 230 10.3 101800 92
2002-03-21 09:31:02 51°11.454 2°46.177 17.1 234 10.3 101800 92
2002-03-21 09:31:06 51°11.448 2°46.154 16.1 235 10.3 101800 92
2002-03-21 09:31:11 51°11.441 2°46.125 16.9 233 10.3 101800 92
2002-03-21 09:31:16 51°11.433 2°46.096 17 232 10.3 101790 92
2002-03-21 09:31:21 51°11.426 2°46.068 17.2 233 10.3 101790 92
2002-03-21 09:31:26 51°11.419 2°46.039 16.8 228 10.3 101790 92
2002-03-21 09:31:32 51°11.41 2°46.004 17.1 230 10.3 101790 92
2002-03-21 09:31:36 51°11.404 2°45.981 17.6 235 10.3 101790 92
2002-03-21 09:31:40 51°11.399 2°45.958 16.8 236 10.3 101790 92
2002-03-21 09:31:46 51°11.39 2°45.923 16.1 229 10.3 101800 92
2002-03-21 09:31:51 51°11.383 2°45.894 16.8 233 10.3 101800 92
2002-03-21 09:31:56 51°11.376 2°45.866 15.4 233 10.3 101800 92
2002-03-21 09:32:02 51°11.367 2°45.831 15.1 234 10.3 101800 92
2002-03-21 09:32:06 51°11.361 2°45.808 17.2 228 10.3 101800 92
2002-03-21 09:32:12 51°11.353 2°45.772 16 237 10.3 101800 92
2002-03-21 09:32:16 51°11.346 2°45.75 17.1 233 10.3 101790 92
2002-03-21 09:32:20 51°11.342 2°45.726 16.8 236 10.3 101790 92
2002-03-21 09:32:26 51°11.333 2°45.692 17 234 10.3 101800 92
2002-03-21 09:32:31 51°11.326 2°45.662 16 234 10.3 101800 92
2002-03-21 09:32:36 51°11.319 2°45.633 17.1 234 10.3 101800 92
2002-03-21 09:32:41 51°11.311 2°45.604 16.5 232 10.3 101800 92
2002-03-21 09:32:46 51°11.305 2°45.575 18.7 232 10.3 101800 92
2002-03-21 09:32:51 51°11.297 2°45.547 17.1 230 10.3 101800 92
2002-03-21 09:32:56 51°11.29 2°45.517 17.2 233 10.3 101810 92
2002-03-21 09:33:02 51°11.282 2°45.483 15.4 231 10.3 101810 92
2002-03-21 09:33:06 51°11.276 2°45.459 17.3 234 10.3 101810 92
2002-03-21 09:33:12 51°11.267 2°45.425 17.5 231 10.3 101810 92
2002-03-21 09:33:16 51°11.262 2°45.402 15.8 230 10.3 101800 92
2002-03-21 09:33:20 51°11.256 2°45.378 15.7 232 10.3 101800 92
2002-03-21 09:33:26 51°11.248 2°45.344 16.2 233 10.3 101800 92
2002-03-21 09:33:31 51°11.241 2°45.315 15.4 234 10.3 101800 92
2002-03-21 09:33:36 51°11.234 2°45.286 17 234 10.3 101810 92
2002-03-21 09:33:41 51°11.227 2°45.257 18.3 233 10.3 101810 92
2002-03-21 09:33:46 51°11.22 2°45.228 17 233 10.3 101780 92
2002-03-21 09:33:51 51°11.212 2°45.199 17.3 231 10.3 101780 92
2002-03-21 09:33:56 51°11.205 2°45.17 18 235 10.3 101790 92
2002-03-21 09:34:02 51°11.196 2°45.135 16.4 234 10.3 101790 92
2002-03-21 09:34:06 51°11.191 2°45.112 17.3 235 10.3 101790 92
2002-03-21 09:34:11 51°11.184 2°45.083 16.2 233 10.3 101790 92
2002-03-21 09:34:16 51°11.176 2°45.055 15.6 230 10.3 101790 92
2002-03-21 09:34:22 51°11.168 2°45.02 15.3 232 10.3 101790 92
2002-03-21 09:34:26 51°11.162 2°44.997 16.4 235 10.3 101800 92
2002-03-21 09:34:31 51°11.155 2°44.968 16.1 232 10.3 101800 92
2002-03-21 09:34:36 51°11.149 2°44.938 16.7 236 10.3 101860 92
2002-03-21 09:34:42 51°11.141 2°44.903 17 235 10.3 101860 92
2002-03-21 09:34:46 51°11.137 2°44.879 16.7 237 10.3 101800 92
2002-03-21 09:34:51 51°11.132 2°44.849 17.3 239 10.3 101800 92
2002-03-21 09:34:56 51°11.127 2°44.819 18 240 10.3 101800 92
2002-03-21 09:35:02 51°11.122 2°44.783 18.3 239 10.3 101800 92
2002-03-21 09:35:06 51°11.119 2°44.758 16.2 241 10.3 101790 92
2002-03-21 09:35:12 51°11.116 2°44.721 15.3 241 10.3 101790 92
2002-03-21 09:35:16 51°11.114 2°44.697 17.9 243 10.3 101790 92
2002-03-21 09:35:22 51°11.111 2°44.66 17.2 240 10.3 101790 92
2002-03-21 09:35:27 51°11.109 2°44.629 17.7 242 10.3 101790 92
2002-03-21 09:35:31 51°11.108 2°44.604 16.3 239 10.3 101790 92
2002-03-21 09:35:36 51°11.106 2°44.573 17.1 241 10.3 101800 92
2002-03-21 09:35:42 51°11.104 2°44.536 16.3 242 10.3 101800 92
2002-03-21 09:35:46 51°11.102 2°44.512 16 237 10.3 101790 92
2002-03-21 09:35:51 51°11.1 2°44.481 16.1 239 10.3 101790 92
2002-03-21 09:35:56 51°11.099 2°44.45 17.7 242 10.3 101790 92
2002-03-21 09:36:02 51°11.097 2°44.412 15.9 241 10.3 101790 92
2002-03-21 09:36:06 51°11.095 2°44.388 17.2 242 10.3 101800 92
2002-03-21 09:36:11 51°11.094 2°44.357 15.7 243 10.3 101800 92
2002-03-21 09:36:16 51°11.093 2°44.326 17.6 244 10.3 101800 92
2002-03-21 09:36:22 51°11.093 2°44.288 15.8 243 10.3 101800 92
2002-03-21 09:36:27 51°11.092 2°44.257 17.1 244 10.3 101780 92
2002-03-21 09:36:31 51°11.092 2°44.232 17 247 10.3 101780 92
2002-03-21 09:36:36 51°11.092 2°44.201 16.7 245 10.3 101800 92
2002-03-21 09:36:41 51°11.092 2°44.17 16.8 245 10.3 101800 92
2002-03-21 09:36:46 51°11.092 2°44.139 17.2 243 10.3 101800 92
2002-03-21 09:36:52 51°11.092 2°44.102 16.8 247 10.3 101800 92
2002-03-21 09:36:57 51°11.092 2°44.07 16.9 244 10.3 101780 92
2002-03-21 09:37:02 51°11.093 2°44.039 16.6 244 10.3 101780 92
2002-03-21 09:37:06 51°11.093 2°44.014 18.1 245 10.3 101790 92
2002-03-21 09:37:11 51°11.092 2°43.983 17 242 10.3 101790 92
2002-03-21 09:37:16 51°11.092 2°43.952 17.5 244 10.3 101780 92
2002-03-21 09:37:22 51°11.092 2°43.915 18.2 245 10.3 101780 92
2002-03-21 09:37:26 51°11.092 2°43.89 17.7 247 10.3 101780 92
2002-03-21 09:37:31 51°11.092 2°43.859 17.2 243 10.3 101780 92
2002-03-21 09:37:36 51°11.091 2°43.827 17.5 242 10.3 101780 92
2002-03-21 09:37:42 51°11.091 2°43.79 17.1 245 10.3 101780 92
2002-03-21 09:37:46 51°11.091 2°43.765 17.8 244 10.3 101800 92
2002-03-21 09:37:52 51°11.091 2°43.728 17.9 245 10.3 101800 92
2002-03-21 09:37:56 51°11.091 2°43.703 16.4 242 10.3 101780 92
2002-03-21 09:38:02 51°11.091 2°43.666 17 244 10.3 101780 92
2002-03-21 09:38:06 51°11.091 2°43.641 19.3 244 10.3 101780 92
2002-03-21 09:38:11 51°11.091 2°43.61 16.6 241 10.3 101780 92
2002-03-21 09:38:16 51°11.091 2°43.579 16.6 245 10.3 101780 92
2002-03-21 09:38:22 51°11.09 2°43.542 17.8 244 10.3 101780 92
2002-03-21 09:38:26 51°11.09 2°43.517 16.8 243 10.3 101780 92
2002-03-21 09:38:31 51°11.09 2°43.486 17.2 248 10.3 101780 92
2002-03-21 09:38:36 51°11.09 2°43.455 16.4 244 10.3 101780 92
2002-03-21 09:38:42 51°11.09 2°43.417 15.7 241 10.3 101780 92
2002-03-21 09:38:47 51°11.09 2°43.386 17.8 246 10.3 101780 92
2002-03-21 09:38:52 51°11.089 2°43.355 16 242 10.3 101780 92
2002-03-21 09:38:56 51°11.089 2°43.33 17.1 240 10.3 101800 92
2002-03-21 09:39:01 51°11.089 2°43.299 16.7 246 10.3 101800 92
2002-03-21 09:39:06 51°11.089 2°43.268 17.5 241 10.3 101770 92
2002-03-21 09:39:11 51°11.089 2°43.237 17.1 242 10.3 101770 92
2002-03-21 09:39:16 51°11.088 2°43.206 18.4 244 10.3 101780 92
2002-03-21 09:39:20 51°11.089 2°43.181 17.3 240 10.3 101780 92
2002-03-21 09:39:26 51°11.088 2°43.144 17.8 244 10.3 101770 92
2002-03-21 09:39:31 51°11.088 2°43.113 17 241 10.3 101770 92
2002-03-21 09:39:36 51°11.088 2°43.082 18.1 242 10.3 101780 92
2002-03-21 09:39:42 51°11.088 2°43.045 18.2 243 10.3 101780 92
2002-03-21 09:39:46 51°11.087 2°43.02 17.9 243 10.3 101790 92
2002-03-21 09:39:52 51°11.088 2°42.983 16.7 240 10.3 101790 92
2002-03-21 09:39:56 51°11.087 2°42.958 16.4 245 10.3 101790 92
2002-03-21 09:40:02 51°11.087 2°42.921 15.4 244 10.3 101790 92
2002-03-21 09:40:07 51°11.087 2°42.89 16.4 245 10.3 101780 92
2002-03-21 09:40:11 51°11.087 2°42.865 15.8 242 10.3 101780 92
2002-03-21 09:40:16 51°11.087 2°42.834 16.9 246 10.3 101790 92
2002-03-21 09:40:22 51°11.087 2°42.797 16 241 10.3 101790 92
2002-03-21 09:40:26 51°11.087 2°42.772 18.8 244 10.3 101810 92
2002-03-21 09:40:32 51°11.087 2°42.735 16.3 245 10.3 101810 92
2002-03-21 09:40:36 51°11.087 2°42.71 18.2 246 10.3 101790 92
2002-03-21 09:40:42 51°11.088 2°42.673 18 245 10.3 101790 92
2002-03-21 09:40:46 51°11.089 2°42.649 18 247 10.3 101790 92
2002-03-21 09:40:51 51°11.09 2°42.618 18 245 10.3 101790 92
2002-03-21 09:40:56 51°11.092 2°42.587 17.3 245 10.2 101780 92
2002-03-21 09:41:02 51°11.092 2°42.55 16.9 243 10.2 101780 92
2002-03-21 09:41:06 51°11.093 2°42.525 17.5 241 10.3 101780 92
2002-03-21 09:41:12 51°11.092 2°42.488 16.7 239 10.3 101780 92
2002-03-21 09:41:16 51°11.092 2°42.463 17.5 246 10.3 101780 92
2002-03-21 09:41:20 51°11.091 2°42.438 17.6 242 10.3 101780 92
2002-03-21 09:41:26 51°11.092 2°42.401 17 244 10.3 101780 92
2002-03-21 09:41:31 51°11.092 2°42.371 18.6 245 10.3 101780 92
2002-03-21 09:41:36 51°11.092 2°42.34 17.4 243 10.2 101780 92
2002-03-21 09:41:42 51°11.094 2°42.302 17.2 242 10.2 101780 92
2002-03-21 09:41:46 51°11.094 2°42.278 16.3 240 10.2 101780 92
2002-03-21 09:41:51 51°11.095 2°42.247 16.1 244 10.2 101780 92
2002-03-21 09:41:56 51°11.095 2°42.216 17.3 243 10.2 101790 92
2002-03-21 09:42:02 51°11.096 2°42.183 16.7 245 10.2 101790 92
2002-03-21 09:42:06 51°11.096 2°42.162 15.5 246 10.2 101790 92
2002-03-21 09:42:11 51°11.097 2°42.138 14.3 247 10.2 101790 92
2002-03-21 09:42:17 51°11.098 2°42.111 14.3 248 10.2 101780 92
2002-03-21 09:42:22 51°11.1 2°42.091 15.7 253 10.2 101780 92
2002-03-21 09:42:26 51°11.101 2°42.075 14.3 254 10.2 101790 92
2002-03-21 09:42:31 51°11.102 2°42.057 14.2 256 10.2 101790 92
2002-03-21 09:42:36 51°11.104 2°42.04 14.1 257 10.2 101790 92
2002-03-21 09:42:42 51°11.107 2°42.021 13.2 259 10.2 101790 92
2002-03-21 09:42:46 51°11.109 2°42.01 12.1 264 10.2 101780 92
2002-03-21 09:42:51 51°11.112 2°41.996 13.7 265 10.2 101780 92
2002-03-21 09:42:57 51°11.115 2°41.982 12.2 272 10.2 101790 92
2002-03-21 09:43:02 51°11.118 2°41.971 11.2 274 10.2 101790 92
2002-03-21 09:43:06 51°11.119 2°41.963 11.1 275 10.2 101800 92
2002-03-21 09:43:12 51°11.122 2°41.955 10.6 276 10.2 101800 92
2002-03-21 09:43:16 51°11.124 2°41.949 11.3 273 10.2 101790 92
2002-03-21 09:43:22 51°11.126 2°41.943 10.8 275 10.2 101790 92
2002-03-21 09:43:27 51°11.127 2°41.94 9.8 284 10.2 101780 92
2002-03-21 09:43:31 51°11.127 2°41.937 9 282 10.2 101780 92
2002-03-21 09:43:36 51°11.127 2°41.937 10.7 282 10.2 101780 92
2002-03-21 09:43:41 51°11.127 2°41.937 9.8 288 10.2 101780 92
2002-03-21 09:43:46 51°11.127 2°41.936 10.2 291 10.2 101790 92
2002-03-21 09:43:51 51°11.127 2°41.936 9.6 295 10.2 101790 92
2002-03-21 09:43:56 51°11.127 2°41.936 11.1 296 10.2 101790 92
2002-03-21 09:44:02 51°11.127 2°41.936 10.4 295 10.2 101790 92
2002-03-21 09:44:08 51°11.127 2°41.935 10.6 294 10.2 101790 92
2002-03-21 09:44:12 51°11.127 2°41.935 10.3 296 10.2 101790 92
2002-03-21 09:44:17 51°11.127 2°41.935 9.2 298 10.2 101790 92
2002-03-21 09:44:22 51°11.127 2°41.934 9.4 300 10.2 101790 92
2002-03-21 09:44:27 51°11.127 2°41.934 7.3 302 10.2 101790 92
2002-03-21 09:44:33 51°11.127 2°41.934 6.7 320 10.2 101790 92
2002-03-21 09:44:37 51°11.127 2°41.933 7.3 311 10.2 101790 92
2002-03-21 09:44:42 51°11.127 2°41.933 6.1 285 10.2 101790 92
2002-03-21 09:44:46 51°11.127 2°41.932 7.5 300 10.1 101790 92
2002-03-21 09:44:51 51°11.127 2°41.932 5.6 321 10.1 101790 92
2002-03-21 09:44:56 51°11.127 2°41.931 6.8 299 10.2 101790 92
2002-03-21 09:45:02 51°11.127 2°41.93 5.5 291 10.2 101790 92
2002-03-21 09:45:07 51°11.127 2°41.93 4.9 314 10.1 101790 92
2002-03-21 09:45:12 51°11.128 2°41.929 4.7 305 10.1 101790 92
2002-03-21 09:45:16 51°11.128 2°41.928 4.7 316 10.1 101790 92
2002-03-21 09:45:22 51°11.129 2°41.927 3.6 332 10.1 101790 92
2002-03-21 09:45:26 51°11.129 2°41.926 5.6 293 10.1 101800 92
2002-03-21 09:45:31 51°11.13 2°41.926 2.5 318 10.1 101800 92
2002-03-21 09:45:36 51°11.13 2°41.925 5 313 10.1 101800 92
2002-03-21 09:45:41 51°11.131 2°41.924 3.9 295 10.1 101800 92
2002-03-21 09:45:46 51°11.132 2°41.924 4.1 331 10.1 101800 92
2002-03-21 09:45:52 51°11.133 2°41.923 4.9 335 10.1 101800 92
2002-03-21 09:45:56 51°11.134 2°41.923 2.5 338 10.1 101800 92
2002-03-21 09:46:02 51°11.135 2°41.922 3 4 10.1 101800 92
2002-03-21 09:46:06 51°11.136 2°41.921 4.2 321 10.1 101790 92
2002-03-21 09:46:11 51°11.137 2°41.92 3.7 319 10.1 101790 92
2002-03-21 09:46:16 51°11.138 2°41.919 5 311 10.1 101790 92
2002-03-21 09:46:22 51°11.139 2°41.918 4 312 10.1 101790 92
2002-03-21 09:46:26 51°11.14 2°41.917 6.6 309 10.1 101800 92
2002-03-21 09:46:31 51°11.141 2°41.916 4.2 325 10.1 101800 92
2002-03-21 09:46:36 51°11.143 2°41.915 4.7 327 10.1 101790 92
2002-03-21 09:46:41 51°11.144 2°41.914 5.2 318 10.1 101790 92
2002-03-21 09:46:47 51°11.146 2°41.912 5.2 298 10 101800 92
2002-03-21 09:46:52 51°11.147 2°41.911 4.7 319 10 101800 92
2002-03-21 09:46:56 51°11.148 2°41.91 4 305 10 101790 92
2002-03-21 09:47:02 51°11.15 2°41.908 7.8 325 10 101790 92
2002-03-21 09:47:07 51°11.152 2°41.907 6.6 299 10 101790 92
2002-03-21 09:47:12 51°11.154 2°41.905 6.4 305 10 101790 92
2002-03-21 09:47:16 51°11.155 2°41.904 6.4 314 10 101790 92
2002-03-21 09:47:22 51°11.157 2°41.902 6.8 322 10 101790 92
2002-03-21 09:47:26 51°11.158 2°41.901 4.5 318 10 101790 92
2002-03-21 09:47:31 51°11.16 2°41.899 4 310 10 101790 92
2002-03-21 09:47:36 51°11.161 2°41.898 5.6 320 10 101800 92
2002-03-21 09:47:42 51°11.163 2°41.897 5.4 323 10 101800 92
2002-03-21 09:47:46 51°11.164 2°41.896 4 318 10 101800 92
2002-03-21 09:47:52 51°11.166 2°41.895 3.8 329 10 101800 92
2002-03-21 09:47:56 51°11.168 2°41.894 3 322 10 101800 92
2002-03-21 09:48:02 51°11.169 2°41.892 2.8 315 10 101800 92
2002-03-21 09:48:06 51°11.171 2°41.892 2.6 316 10 101790 92
2002-03-21 09:48:11 51°11.172 2°41.891 2.8 336 10 101790 92
2002-03-21 09:48:16 51°11.174 2°41.889 1.6 304 10 101790 92
2002-03-21 09:48:21 51°11.176 2°41.889 2.6 347 10 101790 92
2002-03-21 09:48:26 51°11.177 2°41.888 2.6 341 10 101790 92
2002-03-21 09:48:32 51°11.179 2°41.887 2.7 325 10 101790 92
2002-03-21 09:48:37 51°11.181 2°41.886 3 308 10 101790 92
2002-03-21 09:48:42 51°11.183 2°41.886 2 353 10 101790 92
2002-03-21 09:48:46 51°11.184 2°41.885 3 323 10 101800 92
2002-03-21 09:48:52 51°11.186 2°41.885 2.6 338 10 101800 92
2002-03-21 09:48:56 51°11.188 2°41.884 4.1 339 10 101790 92
2002-03-21 09:49:00 51°11.189 2°41.884 2.1 316 10 101790 92
2002-03-21 09:49:06 51°11.192 2°41.883 2.7 326 10 101800 92
2002-03-21 09:49:11 51°11.193 2°41.883 2.8 343 10 101800 92
2002-03-21 09:49:16 51°11.195 2°41.882 2.6 2 10 101790 92
2002-03-21 09:49:22 51°11.198 2°41.882 3.8 340 10 101790 92
2002-03-21 09:49:26 51°11.199 2°41.882 2 329 10 101800 92
2002-03-21 09:49:31 51°11.201 2°41.882 4 335 10 101800 92
2002-03-21 09:49:36 51°11.203 2°41.882 4.2 331 10 101800 92
2002-03-21 09:49:42 51°11.205 2°41.881 3 340 10 101800 92
2002-03-21 09:49:46 51°11.206 2°41.881 5 350 10 101790 92
2002-03-21 09:49:51 51°11.208 2°41.881 6.8 345 10 101790 92
2002-03-21 09:49:56 51°11.21 2°41.881 5.6 351 10 101790 92
2002-03-21 09:50:02 51°11.213 2°41.881 5.4 340 10 101790 92
2002-03-21 09:50:06 51°11.214 2°41.881 5.4 2 10 101790 92
2002-03-21 09:50:11 51°11.216 2°41.881 5.7 352 10 101790 92
2002-03-21 09:50:16 51°11.218 2°41.881 5.4 337 10 101800 92
2002-03-21 09:50:22 51°11.22 2°41.881 5.7 332 10 101800 92
2002-03-21 09:50:26 51°11.221 2°41.88 6.6 350 10 101790 92
2002-03-21 09:50:32 51°11.223 2°41.881 8.2 358 10 101790 92
2002-03-21 09:50:36 51°11.225 2°41.88 8 7 10 101790 92
2002-03-21 09:50:42 51°11.227 2°41.881 7.2 356 10 101790 92
2002-03-21 09:50:46 51°11.229 2°41.882 7.3 354 10 101790 92
2002-03-21 09:50:52 51°11.231 2°41.882 6.7 345 10 101790 92
2002-03-21 09:50:57 51°11.232 2°41.883 8 349 10 101800 92
2002-03-21 09:51:01 51°11.234 2°41.884 8.1 3 10 101800 92
2002-03-21 09:51:06 51°11.236 2°41.885 8 357 10 101800 92
2002-03-21 09:51:11 51°11.238 2°41.886 8.8 358 10 101800 92
2002-03-21 09:51:16 51°11.24 2°41.887 8.7 357 10 101790 92
2002-03-21 09:51:21 51°11.242 2°41.887 7.9 3 10 101790 92
2002-03-21 09:51:26 51°11.243 2°41.889 8 360 10 101800 92
2002-03-21 09:51:31 51°11.245 2°41.889 7.4 16 10 101800 92
2002-03-21 09:51:36 51°11.247 2°41.89 7.7 11 10 101790 92
2002-03-21 09:51:41 51°11.249 2°41.891 8.5 1 10 101790 92
2002-03-21 09:51:46 51°11.25 2°41.893 8 7 10 101790 92
2002-03-21 09:51:51 51°11.252 2°41.894 7.8 356 10 101790 92
2002-03-21 09:51:56 51°11.254 2°41.895 7.6 14 10 101790 92
2002-03-21 09:52:02 51°11.256 2°41.897 6.7 9 10 101790 92
2002-03-21 09:52:06 51°11.257 2°41.898 7.8 10 10 101790 92
2002-03-21 09:52:12 51°11.26 2°41.899 7.9 8 10 101790 92
2002-03-21 09:52:16 51°11.261 2°41.9 8.5 18 10 101800 92
2002-03-21 09:52:20 51°11.262 2°41.901 7.4 8 10 101800 92
2002-03-21 09:52:26 51°11.264 2°41.903 8.8 13 10 101790 92
2002-03-21 09:52:32 51°11.266 2°41.904 8.8 11 10 101790 92
2002-03-21 09:52:36 51°11.267 2°41.905 7.8 359 10 101800 92
2002-03-21 09:52:42 51°11.269 2°41.906 6.4 5 10 101800 92
2002-03-21 09:52:46 51°11.27 2°41.907 8.6 10 10 101790 92
2002-03-21 09:52:52 51°11.271 2°41.908 9.5 11 10 101790 92
2002-03-21 09:52:56 51°11.273 2°41.909 7.7 3 10 101790 92
2002-03-21 09:53:02 51°11.274 2°41.91 7.7 5 10 101790 92
2002-03-21 09:53:06 51°11.276 2°41.911 7.9 6 10 101800 92
2002-03-21 09:53:12 51°11.278 2°41.913 7.8 9 10 101800 92
2002-03-21 09:53:16 51°11.28 2°41.915 7.8 13 10 101800 92
2002-03-21 09:53:22 51°11.283 2°41.917 7.4 16 10 101800 92
2002-03-21 09:53:27 51°11.285 2°41.921 7.8 23 10 101790 92
2002-03-21 09:53:31 51°11.287 2°41.924 7.3 24 10 101790 92
2002-03-21 09:53:36 51°11.289 2°41.929 7.9 34 10 101790 92
2002-03-21 09:53:42 51°11.291 2°41.935 5.9 47 10 101790 92
2002-03-21 09:53:46 51°11.292 2°41.94 6.7 54 10 101800 92
2002-03-21 09:53:51 51°11.294 2°41.946 7.2 67 10 101800 92
2002-03-21 09:53:57 51°11.294 2°41.954 6.4 75 10 101800 92
2002-03-21 09:54:02 51°11.294 2°41.961 7 83 10 101800 92
2002-03-21 09:54:06 51°11.293 2°41.967 6.7 88 10 101810 93
2002-03-21 09:54:11 51°11.291 2°41.976 7.7 102 10 101810 93
2002-03-21 09:54:16 51°11.288 2°41.985 8 122 10 101810 93
2002-03-21 09:54:22 51°11.283 2°41.995 7.9 133 10 101810 93
2002-03-21 09:54:26 51°11.278 2°42.001 6.9 150 10 101820 93
2002-03-21 09:54:32 51°11.269 2°42.009 7.8 152 10 101820 93
2002-03-21 09:54:37 51°11.26 2°42.013 9.1 166 10 101810 93
2002-03-21 09:54:42 51°11.251 2°42.016 9.5 172 10 101810 93
2002-03-21 09:54:46 51°11.243 2°42.016 8.9 182 10 101810 92
2002-03-21 09:54:52 51°11.231 2°42.013 10.4 185 10 101810 92
2002-03-21 09:54:57 51°11.22 2°42.008 9.4 198 10 101800 92
2002-03-21 09:55:02 51°11.21 2°42 11.8 200 10 101800 92
2002-03-21 09:55:06 51°11.202 2°41.992 12.3 211 10 101800 92
2002-03-21 09:55:11 51°11.193 2°41.98 12.3 216 10 101800 92
2002-03-21 09:55:16 51°11.185 2°41.966 13.3 219 10 101780 92
2002-03-21 09:55:22 51°11.176 2°41.946 13.9 231 10 101780 92
2002-03-21 09:55:26 51°11.172 2°41.931 14.6 233 9.9 101780 92
2002-03-21 09:55:32 51°11.166 2°41.908 15.3 238 9.9 101780 92
2002-03-21 09:55:36 51°11.164 2°41.891 13.9 236 10 101780 92
2002-03-21 09:55:42 51°11.16 2°41.866 14.9 232 10 101780 92
2002-03-21 09:55:46 51°11.158 2°41.85 13.8 229 10 101770 93
2002-03-21 09:55:52 51°11.151 2°41.826 13.3 222 10 101770 93
2002-03-21 09:55:56 51°11.146 2°41.812 14.1 217 10 101790 93
2002-03-21 09:56:02 51°11.136 2°41.791 12.6 217 10 101790 93
2002-03-21 09:56:06 51°11.128 2°41.779 13.2 210 10 101780 93
2002-03-21 09:56:12 51°11.116 2°41.76 12.8 213 10 101780 93
2002-03-21 09:56:16 51°11.108 2°41.748 14.3 213 10 101780 93
2002-03-21 09:56:20 51°11.099 2°41.736 14.7 207 10 101780 93
2002-03-21 09:56:26 51°11.085 2°41.72 13.9 209 10 101770 93
2002-03-21 09:56:31 51°11.074 2°41.706 14.3 211 10 101770 93
2002-03-21 09:56:36 51°11.061 2°41.693 14.9 206 10 101770 93
2002-03-21 09:56:41 51°11.049 2°41.68 14.6 204 10 101770 93
2002-03-21 09:56:46 51°11.036 2°41.668 12.8 204 10 101760 93
2002-03-21 09:56:51 51°11.024 2°41.656 12.4 204 10 101760 93
2002-03-21 09:56:56 51°11.01 2°41.644 14.2 201 10 101760 93
2002-03-21 09:57:01 51°10.997 2°41.633 13.2 199 10 101760 93
2002-03-21 09:57:06 51°10.983 2°41.623 11.6 207 10 101750 93
2002-03-21 09:57:11 51°10.97 2°41.612 13.3 201 10 101750 93
2002-03-21 09:57:16 51°10.955 2°41.601 14.9 204 10 101760 93
2002-03-21 09:57:22 51°10.936 2°41.588 14.5 201 10 101760 93
2002-03-21 09:57:26 51°10.923 2°41.579 13.3 205 10 101770 93
2002-03-21 09:57:31 51°10.907 2°41.567 14 203 10 101770 93
2002-03-21 09:57:36 51°10.891 2°41.556 15.3 208 10 101770 93
2002-03-21 09:57:42 51°10.871 2°41.541 15.2 205 10 101770 93
2002-03-21 09:57:46 51°10.857 2°41.532 15.3 200 10 101760 93
2002-03-21 09:57:51 51°10.839 2°41.52 13.5 203 10 101760 93
2002-03-21 09:57:56 51°10.822 2°41.51 14.8 205 10 101760 93
2002-03-21 09:58:02 51°10.801 2°41.497 13.4 206 10 101760 93
2002-03-21 09:58:06 51°10.787 2°41.487 15.2 207 10 101760 93
2002-03-21 09:58:11 51°10.77 2°41.475 15.7 205 10 101760 93
2002-03-21 09:58:16 51°10.753 2°41.463 14.7 201 10 101750 93
2002-03-21 09:58:22 51°10.732 2°41.448 13.5 206 10 101750 93
2002-03-21 09:58:26 51°10.717 2°41.44 16.3 204 10 101750 93
2002-03-21 09:58:32 51°10.696 2°41.427 14.2 206 10 101750 93
2002-03-21 09:58:37 51°10.679 2°41.416 13.5 208 10 101750 93
2002-03-21 09:58:41 51°10.665 2°41.407 14.9 200 10 101750 93
2002-03-21 09:58:46 51°10.647 2°41.397 14.1 201 10 101760 93
2002-03-21 09:58:51 51°10.629 2°41.387 15.6 200 10 101760 93
2002-03-21 09:58:56 51°10.611 2°41.378 13.6 201 10 101760 93
2002-03-21 09:59:02 51°10.589 2°41.368 14.3 205 10 101760 93
2002-03-21 09:59:06 51°10.575 2°41.363 14.1 201 10 101760 93
2002-03-21 09:59:12 51°10.554 2°41.355 15.4 197 10 101760 93
2002-03-21 09:59:16 51°10.539 2°41.35 13.4 200 10 101750 93
2002-03-21 09:59:22 51°10.516 2°41.342 14 200 10 101750 93
2002-03-21 09:59:26 51°10.501 2°41.337 15.3 199 10 101760 93
2002-03-21 09:59:32 51°10.48 2°41.329 13.6 202 10 101760 93
2002-03-21 09:59:37 51°10.461 2°41.323 12.6 201 10 101760 93
2002-03-21 09:59:42 51°10.443 2°41.317 13.2 200 10 101760 93
2002-03-21 09:59:47 51°10.425 2°41.311 14.1 203 10 101760 93
2002-03-21 09:59:51 51°10.41 2°41.306 14 197 10 101760 93
2002-03-21 09:59:56 51°10.392 2°41.3 13.4 194 10 101760 93
2002-03-21 10:00:00 51°10.377 2°41.295 14.1 196 10 101760 93
2002-03-21 10:00:06 51°10.356 2°41.289 13.9 200 10 101760 93
2002-03-21 10:00:11 51°10.337 2°41.283 12.8 198 10 101760 93
2002-03-21 10:00:16 51°10.319 2°41.277 15 199 10 101750 93
2002-03-21 10:00:21 51°10.301 2°41.269 14.4 200 10 101750 93
2002-03-21 10:00:26 51°10.283 2°41.261 14 203 10 101760 93
2002-03-21 10:00:32 51°10.262 2°41.249 14 206 10 101760 93
2002-03-21 10:00:37 51°10.244 2°41.239 12.9 201 10 101760 93
2002-03-21 10:00:42 51°10.227 2°41.23 13.7 198 10 101760 93
2002-03-21 10:00:46 51°10.213 2°41.223 13.6 200 10 101750 93
2002-03-21 10:00:52 51°10.191 2°41.213 13.3 202 10 101750 93
2002-03-21 10:00:56 51°10.176 2°41.208 13.7 201 10 101760 93
2002-03-21 10:01:01 51°10.158 2°41.2 12.6 198 10 101760 93
2002-03-21 10:01:06 51°10.141 2°41.192 14 203 10 101760 93
2002-03-21 10:01:11 51°10.123 2°41.183 13.5 204 10 101760 93
2002-03-21 10:01:16 51°10.106 2°41.174 13.3 202 10 101760 93
2002-03-21 10:01:20 51°10.092 2°41.166 13.5 198 10 101760 93
2002-03-21 10:01:26 51°10.071 2°41.155 13.5 207 10 101760 93
2002-03-21 10:01:31 51°10.053 2°41.146 15 204 10 101760 93
2002-03-21 10:01:36 51°10.035 2°41.134 13.2 209 10 101770 93
2002-03-21 10:01:40 51°10.022 2°41.124 14.1 209 10 101770 93
2002-03-21 10:01:46 51°10.004 2°41.109 14.3 211 10 101770 93
2002-03-21 10:01:51 51°9.991 2°41.095 15 212 10 101770 93
2002-03-21 10:01:56 51°9.979 2°41.081 13 215 10 101770 93
2002-03-21 10:02:02 51°9.966 2°41.062 12.5 219 10 101770 93
2002-03-21 10:02:06 51°9.96 2°41.05 12.6 224 10 101780 93
2002-03-21 10:02:11 51°9.952 2°41.036 13.2 224 10 101780 93
2002-03-21 10:02:16 51°9.946 2°41.022 12.1 225 10 101780 93
2002-03-21 10:02:22 51°9.939 2°41.006 12.9 224 10 101780 93
2002-03-21 10:02:26 51°9.936 2°40.995 12.7 231 10 101780 93
2002-03-21 10:02:31 51°9.931 2°40.984 11.8 231 10 101780 93
2002-03-21 10:02:36 51°9.929 2°40.973 10.3 237 10.1 101790 93
2002-03-21 10:02:42 51°9.927 2°40.963 9.2 240 10.1 101790 93
2002-03-21 10:02:46 51°9.925 2°40.958 10.8 247 10.1 101790 93
2002-03-21 10:02:50 51°9.925 2°40.953 9.4 251 10.1 101790 93
2002-03-21 10:02:56 51°9.924 2°40.949 10 261 10.1 101800 93
2002-03-21 10:03:01 51°9.924 2°40.947 9.1 258 10.1 101800 93
2002-03-21 10:03:07 51°9.924 2°40.945 9.6 261 10.1 101800 93
2002-03-21 10:03:12 51°9.924 2°40.943 9.1 263 10.1 101800 93
2002-03-21 10:03:17 51°9.923 2°40.942 9.3 263 10.1 101800 93
2002-03-21 10:03:22 51°9.924 2°40.94 9.1 270 10.1 101800 93
2002-03-21 10:03:26 51°9.923 2°40.939 9.2 267 10.1 101800 93
2002-03-21 10:03:31 51°9.924 2°40.938 9.3 273 10.1 101800 93
2002-03-21 10:03:36 51°9.923 2°40.937 8.8 276 10.1 101800 93
2002-03-21 10:03:42 51°9.924 2°40.935 8.9 278 10.1 101800 93
2002-03-21 10:03:47 51°9.924 2°40.934 8.2 287 10.1 101800 93
2002-03-21 10:03:53 51°9.924 2°40.932 9.6 283 10.1 101800 93
2002-03-21 10:03:57 51°9.924 2°40.93 10.1 287 10.1 101800 93
2002-03-21 10:04:02 51°9.925 2°40.928 9.9 287 10.1 101800 93
2002-03-21 10:04:07 51°9.926 2°40.925 9.5 289 10.1 101800 93
2002-03-21 10:04:12 51°9.927 2°40.923 9.9 296 10.1 101800 93
2002-03-21 10:04:16 51°9.928 2°40.92 9.5 296 10.1 101800 93
2002-03-21 10:04:22 51°9.93 2°40.916 9.1 297 10.1 101800 93
2002-03-21 10:04:26 51°9.931 2°40.913 10.1 298 10.1 101800 93
2002-03-21 10:04:32 51°9.934 2°40.909 9.2 304 10.1 101800 93
2002-03-21 10:04:36 51°9.936 2°40.907 9.2 293 10.1 101790 93
2002-03-21 10:04:42 51°9.939 2°40.902 8.1 298 10.1 101790 93
2002-03-21 10:04:47 51°9.942 2°40.899 7.3 310 10.1 101800 93
2002-03-21 10:04:52 51°9.946 2°40.895 6.9 304 10.1 101800 93
2002-03-21 10:04:56 51°9.949 2°40.892 8.5 306 10.1 101800 93
2002-03-21 10:05:01 51°9.953 2°40.888 7.3 304 10.1 101800 93
2002-03-21 10:05:06 51°9.957 2°40.885 5.3 330 10.1 101790 93
2002-03-21 10:05:11 51°9.961 2°40.881 6.8 306 10.1 101790 93
2002-03-21 10:05:16 51°9.966 2°40.878 6.7 320 10.1 101800 93
2002-03-21 10:05:21 51°9.971 2°40.875 5.6 303 10.1 101800 93
2002-03-21 10:05:26 51°9.976 2°40.872 5.2 319 10.1 101800 93
2002-03-21 10:05:31 51°9.982 2°40.87 4.3 313 10.1 101800 93
2002-03-21 10:05:35 51°9.986 2°40.868 3.2 332 10.1 101800 93
2002-03-21 10:05:41 51°9.993 2°40.865 4.2 320 10.1 101800 93
2002-03-21 10:05:46 51°9.998 2°40.863 2.4 319 10.1 101800 93
2002-03-21 10:05:52 51°10.005 2°40.861 3.7 315 10.1 101800 93
2002-03-21 10:05:56 51°10.009 2°40.86 2.7 337 10.1 101800 93
2002-03-21 10:06:00 51°10.014 2°40.859 1.3 355 10.1 101800 93
2002-03-21 10:06:06 51°10.02 2°40.859 2 327 10.1 101800 93
2002-03-21 10:06:11 51°10.026 2°40.858 1.4 330 10.1 101800 93
2002-03-21 10:06:16 51°10.031 2°40.858 1 359 10.1 101800 93
2002-03-21 10:06:20 51°10.036 2°40.859 0.8 347 10.1 101800 93
2002-03-21 10:06:26 51°10.042 2°40.859 1.6 345 10.1 101800 93
2002-03-21 10:06:31 51°10.047 2°40.86 1.9 351 10.1 101800 93
2002-03-21 10:06:36 51°10.053 2°40.861 3.4 342 10.1 101810 93
2002-03-21 10:06:41 51°10.058 2°40.863 2.4 328 10.1 101810 93
2002-03-21 10:06:46 51°10.064 2°40.865 3.6 347 10.1 101810 93
2002-03-21 10:06:51 51°10.068 2°40.867 6.2 355 10.1 101810 93
2002-03-21 10:06:56 51°10.074 2°40.869 6 351 10.1 101810 93
2002-03-21 10:07:02 51°10.08 2°40.873 7.3 360 10.1 101810 93
2002-03-21 10:07:06 51°10.083 2°40.875 6.4 2 10.1 101810 93
2002-03-21 10:07:11 51°10.088 2°40.879 5.3 1 10.1 101810 93
2002-03-21 10:07:17 51°10.094 2°40.883 4.8 354 10.2 101810 93
2002-03-21 10:07:22 51°10.098 2°40.887 5.5 7 10.2 101810 93
2002-03-21 10:07:26 51°10.102 2°40.891 6.6 18 10.2 101810 93
2002-03-21 10:07:31 51°10.106 2°40.895 6.8 19 10.2 101810 93
2002-03-21 10:07:36 51°10.11 2°40.9 6.6 22 10.2 101810 93
2002-03-21 10:07:42 51°10.115 2°40.906 6.2 21 10.2 101810 93
2002-03-21 10:07:46 51°10.118 2°40.91 6.2 26 10.2 101810 93
2002-03-21 10:07:52 51°10.123 2°40.917 4.4 27 10.2 101810 93
2002-03-21 10:07:56 51°10.125 2°40.922 6.6 29 10.1 101810 93
2002-03-21 10:08:02 51°10.129 2°40.929 5.9 32 10.1 101810 93
2002-03-21 10:08:06 51°10.132 2°40.934 5.7 34 10.2 101820 93
2002-03-21 10:08:11 51°10.135 2°40.94 5.4 34 10.2 101820 93
2002-03-21 10:08:16 51°10.137 2°40.946 6.3 39 10.1 101820 93
2002-03-21 10:08:22 51°10.141 2°40.954 5.6 34 10.1 101820 93
2002-03-21 10:08:26 51°10.143 2°40.959 5.6 319 10.1 101810 93
2002-03-21 10:08:30 51°10.145 2°40.964 5.3 322 10.1 101810 93
2002-03-21 10:08:36 51°10.148 2°40.972 5.2 49 10.2 101810 93
2002-03-21 10:08:40 51°10.149 2°40.978 5.8 131 10.2 101810 93
2002-03-21 10:08:46 51°10.152 2°40.986 6.2 52 10.1 101820 93
2002-03-21 10:08:51 51°10.153 2°40.994 6.1 52 10.1 101820 93
2002-03-21 10:08:55 51°10.155 2°41 5.7 62 10.2 101820 93
2002-03-21 10:09:01 51°10.156 2°41.008 5.9 61 10.2 101820 93
2002-03-21 10:09:06 51°10.158 2°41.016 5 57 10.2 101820 93
2002-03-21 10:09:11 51°10.159 2°41.023 5 61 10.2 101820 93
2002-03-21 10:09:16 51°10.16 2°41.031 6.4 63 10.3 101820 93
2002-03-21 10:09:21 51°10.161 2°41.039 6.7 67 10.3 101820 93
2002-03-21 10:09:26 51°10.162 2°41.046 6.1 64 10.3 101820 93
2002-03-21 10:09:32 51°10.162 2°41.056 6.1 76 10.3 101820 93
2002-03-21 10:09:37 51°10.163 2°41.064 7.2 82 10.3 101820 93
2002-03-21 10:09:42 51°10.162 2°41.071 5.9 79 10.3 101820 93
2002-03-21 10:09:46 51°10.162 2°41.078 5.6 84 10.2 101820 93
2002-03-21 10:09:51 51°10.162 2°41.085 6.8 91 10.2 101820 93
2002-03-21 10:09:55 51°10.161 2°41.091 6.3 90 10.2 101830 93
2002-03-21 10:10:01 51°10.161 2°41.101 6.2 92 10.2 101830 93
2002-03-21 10:10:07 51°10.159 2°41.11 6.5 94 10.3 101830 93
2002-03-21 10:10:12 51°10.158 2°41.117 6.6 97 10.3 101830 93
2002-03-21 10:10:16 51°10.157 2°41.123 6.4 95 10.2 101820 93
2002-03-21 10:10:21 51°10.155 2°41.13 6.1 104 10.2 101820 93
2002-03-21 10:10:26 51°10.154 2°41.136 7.1 107 10.2 101820 93
2002-03-21 10:10:31 51°10.152 2°41.142 6 104 10.2 101820 93
2002-03-21 10:10:36 51°10.15 2°41.148 7.1 105 10.3 101820 93
2002-03-21 10:10:42 51°10.148 2°41.155 7.3 106 10.3 101820 93
2002-03-21 10:10:47 51°10.146 2°41.16 6.4 110 10.2 101820 93
2002-03-21 10:10:52 51°10.144 2°41.165 7.2 106 10.2 101820 93
2002-03-21 10:10:56 51°10.143 2°41.169 6 112 10.2 101820 93
2002-03-21 10:11:01 51°10.141 2°41.174 7.3 108 10.2 101820 93
2002-03-21 10:11:06 51°10.139 2°41.179 7.8 118 10.3 101820 93
2002-03-21 10:11:11 51°10.137 2°41.183 7.3 114 10.3 101820 93
2002-03-21 10:11:16 51°10.135 2°41.187 7.8 116 10.3 101820 93
2002-03-21 10:11:21 51°10.133 2°41.191 7.1 112 10.3 101820 93
2002-03-21 10:11:27 51°10.13 2°41.196 6.8 119 10.2 101820 93
2002-03-21 10:11:32 51°10.128 2°41.199 6.4 122 10.2 101820 93
2002-03-21 10:11:36 51°10.126 2°41.202 6.4 114 10.2 101820 93
2002-03-21 10:11:40 51°10.124 2°41.205 7.6 118 10.2 101820 93
2002-03-21 10:11:46 51°10.121 2°41.209 7.2 116 10.3 101830 93
2002-03-21 10:11:51 51°10.119 2°41.212 8.4 124 10.3 101830 93
2002-03-21 10:11:55 51°10.117 2°41.214 6.8 129 10.3 101820 93
2002-03-21 10:12:02 51°10.114 2°41.218 6.9 130 10.3 101820 93
2002-03-21 10:12:06 51°10.112 2°41.22 7.6 121 10.3 101820 93
2002-03-21 10:12:11 51°10.109 2°41.223 7.7 127 10.3 101820 93
2002-03-21 10:12:16 51°10.107 2°41.225 7.7 122 10.2 101820 93
2002-03-21 10:12:22 51°10.104 2°41.228 6.4 128 10.2 101820 93
2002-03-21 10:12:26 51°10.102 2°41.23 6.7 135 10.3 101820 93
2002-03-21 10:12:32 51°10.099 2°41.232 7.1 131 10.3 101820 93
2002-03-21 10:12:36 51°10.096 2°41.234 6.5 134 10.2 101820 93
2002-03-21 10:12:42 51°10.093 2°41.236 6.8 133 10.2 101820 93
2002-03-21 10:12:46 51°10.091 2°41.238 8 134 10.2 101820 93
2002-03-21 10:12:51 51°10.089 2°41.24 8.2 135 10.2 101820 93
2002-03-21 10:12:56 51°10.086 2°41.241 7.6 133 10.3 101820 93
2002-03-21 10:13:02 51°10.083 2°41.243 7.7 140 10.3 101820 93
2002-03-21 10:13:06 51°10.081 2°41.244 8.5 139 10.3 101820 93
2002-03-21 10:13:11 51°10.078 2°41.246 8.4 144 10.3 101820 93
2002-03-21 10:13:16 51°10.075 2°41.247 7 141 10.3 101820 93
2002-03-21 10:13:21 51°10.073 2°41.248 7 135 10.3 101820 93
2002-03-21 10:13:26 51°10.07 2°41.25 7.7 135 10.3 101820 93
2002-03-21 10:13:32 51°10.067 2°41.251 6.6 138 10.3 101820 93
2002-03-21 10:13:36 51°10.065 2°41.252 7.3 139 10.3 101820 93
2002-03-21 10:13:42 51°10.061 2°41.253 6.9 141 10.3 101820 93
2002-03-21 10:13:46 51°10.059 2°41.253 8.5 145 10.3 101820 93
2002-03-21 10:13:52 51°10.056 2°41.254 8.6 143 10.3 101820 93
2002-03-21 10:13:57 51°10.053 2°41.255 9 149 10.3 101820 93
2002-03-21 10:14:02 51°10.05 2°41.255 7.3 147 10.3 101820 93
2002-03-21 10:14:06 51°10.048 2°41.256 8.4 147 10.3 101820 93
2002-03-21 10:14:12 51°10.045 2°41.256 8.4 153 10.3 101820 93
2002-03-21 10:14:17 51°10.042 2°41.257 7.3 153 10.3 101820 93
2002-03-21 10:14:22 51°10.039 2°41.256 8.8 159 10.3 101820 93
2002-03-21 10:14:26 51°10.037 2°41.257 7.9 158 10.3 101820 93
2002-03-21 10:14:32 51°10.034 2°41.256 9.4 163 10.3 101820 93
2002-03-21 10:14:36 51°10.032 2°41.256 8.4 159 10.3 101820 93
2002-03-21 10:14:42 51°10.028 2°41.255 8.2 163 10.3 101820 93
2002-03-21 10:14:46 51°10.026 2°41.255 7.7 167 10.3 101820 93
2002-03-21 10:14:52 51°10.023 2°41.254 8.6 173 10.3 101820 93
2002-03-21 10:14:56 51°10.021 2°41.253 7.5 169 10.3 101820 93
2002-03-21 10:15:01 51°10.018 2°41.252 8.8 171 10.3 101820 93
2002-03-21 10:15:06 51°10.016 2°41.251 7.6 173 10.3 101820 93
2002-03-21 10:15:11 51°10.013 2°41.25 9.3 174 10.3 101820 93
2002-03-21 10:15:16 51°10.011 2°41.248 7.9 175 10.3 101810 93
2002-03-21 10:15:22 51°10.008 2°41.246 8.1 173 10.3 101810 93
2002-03-21 10:15:26 51°10.006 2°41.245 6.7 178 10.3 101810 93
2002-03-21 10:15:31 51°10.003 2°41.243 7.1 181 10.3 101810 93
2002-03-21 10:15:36 51°10.001 2°41.242 7.9 185 10.3 101810 93
2002-03-21 10:15:42 51°9.998 2°41.239 7.2 188 10.3 101810 93
2002-03-21 10:15:46 51°9.996 2°41.238 7.4 186 10.3 101810 93
2002-03-21 10:15:51 51°9.993 2°41.235 8.2 190 10.3 101810 93
2002-03-21 10:15:56 51°9.991 2°41.233 7.4 191 10.3 101820 93
2002-03-21 10:16:02 51°9.988 2°41.229 9.1 199 10.3 101820 93
2002-03-21 10:16:06 51°9.986 2°41.227 8.7 196 10.3 101820 93
2002-03-21 10:16:11 51°9.984 2°41.223 9.3 203 10.3 101820 93
2002-03-21 10:16:16 51°9.982 2°41.22 10.2 206 10.3 101810 93
2002-03-21 10:16:21 51°9.98 2°41.217 8.9 206 10.3 101810 93
2002-03-21 10:16:26 51°9.977 2°41.214 8.6 210 10.3 101810 93
2002-03-21 10:16:31 51°9.975 2°41.21 8.8 212 10.3 101810 93
2002-03-21 10:16:36 51°9.973 2°41.207 9.2 211 10.3 101810 93
2002-03-21 10:16:40 51°9.972 2°41.204 8.9 215 10.3 101810 93
2002-03-21 10:16:46 51°9.97 2°41.199 10.5 223 10.3 101800 93
2002-03-21 10:16:51 51°9.968 2°41.195 9.5 216 10.3 101800 93
2002-03-21 10:16:56 51°9.966 2°41.191 9.1 213 10.2 101810 93
2002-03-21 10:17:02 51°9.964 2°41.186 10 215 10.2 101810 93
2002-03-21 10:17:06 51°9.963 2°41.183 8.7 215 10.3 101810 93
2002-03-21 10:17:11 51°9.961 2°41.178 9.4 217 10.3 101810 93
2002-03-21 10:17:17 51°9.959 2°41.173 10.7 216 10.3 101810 93
2002-03-21 10:17:22 51°9.957 2°41.169 10.3 212 10.3 101810 93
2002-03-21 10:17:26 51°9.956 2°41.165 9.5 216 10.3 101810 93
2002-03-21 10:17:31 51°9.954 2°41.161 10.1 217 10.3 101810 93
2002-03-21 10:17:36 51°9.952 2°41.157 8.4 208 10.3 101810 93
2002-03-21 10:17:41 51°9.95 2°41.152 9.1 210 10.3 101810 93
2002-03-21 10:17:47 51°9.948 2°41.147 10.2 216 10.3 101810 93
2002-03-21 10:17:52 51°9.946 2°41.142 10.4 207 10.3 101810 93
2002-03-21 10:17:56 51°9.945 2°41.139 9.2 211 10.3 101810 93
2002-03-21 10:18:02 51°9.942 2°41.133 10.4 213 10.3 101810 93
2002-03-21 10:18:06 51°9.94 2°41.13 9.8 208 10.3 101820 93
2002-03-21 10:18:12 51°9.938 2°41.125 8.7 210 10.3 101820 93
2002-03-21 10:18:16 51°9.936 2°41.122 9.2 208 10.3 101810 93
2002-03-21 10:18:22 51°9.934 2°41.117 9.6 207 10.3 101810 93
2002-03-21 10:18:27 51°9.932 2°41.113 8.7 209 10.3 101810 93
2002-03-21 10:18:32 51°9.929 2°41.109 9.7 206 10.3 101810 93
2002-03-21 10:18:36 51°9.927 2°41.105 8 203 10.3 101810 93
2002-03-21 10:18:42 51°9.925 2°41.1 8.9 203 10.3 101810 93
2002-03-21 10:18:46 51°9.923 2°41.097 9.5 205 10.3 101810 93
2002-03-21 10:18:52 51°9.92 2°41.092 10.9 203 10.3 101810 93
2002-03-21 10:18:57 51°9.918 2°41.088 9.6 204 10.3 101810 93
2002-03-21 10:19:02 51°9.915 2°41.084 10 202 10.3 101810 93
2002-03-21 10:19:06 51°9.913 2°41.081 9 200 10.3 101820 93
2002-03-21 10:19:12 51°9.91 2°41.076 9.4 199 10.3 101820 93
2002-03-21 10:19:16 51°9.908 2°41.073 8.7 200 10.3 101810 93
2002-03-21 10:19:20 51°9.906 2°41.07 9.3 201 10.3 101810 93
2002-03-21 10:19:26 51°9.903 2°41.065 9 198 10.3 101810 93
2002-03-21 10:19:32 51°9.9 2°41.061 8.2 201 10.3 101810 93
2002-03-21 10:19:36 51°9.899 2°41.058 9.1 201 10.3 101810 93
2002-03-21 10:19:41 51°9.896 2°41.054 8.9 200 10.3 101810 93
2002-03-21 10:19:47 51°9.893 2°41.049 9.1 202 10.3 101810 93
2002-03-21 10:19:52 51°9.89 2°41.045 9.3 204 10.3 101810 93
2002-03-21 10:19:56 51°9.888 2°41.042 10.2 204 10.3 101810 93
2002-03-21 10:20:02 51°9.885 2°41.037 9.7 202 10.3 101810 93
2002-03-21 10:20:06 51°9.883 2°41.034 8.7 202 10.3 101810 93
2002-03-21 10:20:11 51°9.881 2°41.03 8.4 206 10.3 101810 93
2002-03-21 10:20:16 51°9.878 2°41.026 9.9 205 10.3 101820 93
2002-03-21 10:20:22 51°9.875 2°41.022 10.2 205 10.3 101820 93
2002-03-21 10:20:26 51°9.873 2°41.018 8.9 209 10.3 101810 93
2002-03-21 10:20:31 51°9.871 2°41.014 9.5 208 10.3 101810 93
2002-03-21 10:20:36 51°9.869 2°41.01 8.3 208 10.3 101820 93
2002-03-21 10:20:42 51°9.866 2°41.004 9.6 211 10.3 101820 93
2002-03-21 10:20:47 51°9.864 2°41 9.1 215 10.3 101820 93
2002-03-21 10:20:51 51°9.862 2°40.996 9.4 218 10.3 101820 93
2002-03-21 10:20:56 51°9.861 2°40.992 10.5 223 10.3 101810 93
2002-03-21 10:21:02 51°9.858 2°40.986 10 221 10.3 101810 93
2002-03-21 10:21:06 51°9.858 2°40.982 8.7 220 10.3 101820 93
2002-03-21 10:21:11 51°9.856 2°40.976 9 225 10.3 101820 93
2002-03-21 10:21:16 51°9.855 2°40.971 10.1 229 10.3 101820 93
2002-03-21 10:21:22 51°9.854 2°40.964 9.9 226 10.3 101820 93
2002-03-21 10:21:27 51°9.853 2°40.959 9.2 238 10.3 101820 93
2002-03-21 10:21:32 51°9.851 2°40.953 9.6 236 10.3 101820 93
2002-03-21 10:21:36 51°9.851 2°40.949 9.4 238 10.3 101820 93
2002-03-21 10:21:42 51°9.85 2°40.942 10.9 238 10.3 101820 93
2002-03-21 10:21:47 51°9.849 2°40.936 10.1 238 10.3 101820 93
2002-03-21 10:21:52 51°9.849 2°40.93 10.1 238 10.3 101820 93
2002-03-21 10:21:56 51°9.849 2°40.926 10.2 241 10.3 101830 93
2002-03-21 10:22:02 51°9.848 2°40.919 10 241 10.3 101830 93
2002-03-21 10:22:06 51°9.848 2°40.914 9.2 241 10.3 101830 93
2002-03-21 10:22:11 51°9.847 2°40.908 9.7 242 10.3 101830 93
2002-03-21 10:22:16 51°9.847 2°40.902 10.1 242 10.3 101830 93
2002-03-21 10:22:22 51°9.846 2°40.895 10.1 242 10.3 101830 93
2002-03-21 10:22:25 51°9.847 2°40.892 8.7 242 10.3 101820 93
2002-03-21 10:22:31 51°9.846 2°40.884 10.1 240 10.3 101820 93
2002-03-21 10:22:36 51°9.846 2°40.878 9.9 239 10.3 101830 93
2002-03-21 10:22:40 51°9.846 2°40.873 9.6 239 10.3 101830 93
2002-03-21 10:22:46 51°9.846 2°40.866 8.9 241 10.3 101820 93
2002-03-21 10:22:51 51°9.845 2°40.86 10.1 240 10.3 101820 93
2002-03-21 10:22:56 51°9.845 2°40.854 9.3 236 10.3 101830 93
2002-03-21 10:23:00 51°9.845 2°40.85 8.7 238 10.3 101830 93
2002-03-21 10:23:06 51°9.844 2°40.842 8.7 235 10.3 101830 93
2002-03-21 10:23:12 51°9.844 2°40.835 8 235 10.3 101830 93
2002-03-21 10:23:16 51°9.843 2°40.83 9.1 235 10.3 101830 93
2002-03-21 10:23:22 51°9.843 2°40.823 10.4 233 10.3 101830 93
2002-03-21 10:23:27 51°9.842 2°40.817 10 235 10.3 101830 93
2002-03-21 10:23:32 51°9.842 2°40.811 9.4 233 10.3 101830 93
2002-03-21 10:23:36 51°9.841 2°40.806 10.3 237 10.3 101830 93
2002-03-21 10:23:42 51°9.841 2°40.799 9.4 235 10.3 101830 93
2002-03-21 10:23:46 51°9.84 2°40.794 9.7 239 10.3 101830 93
2002-03-21 10:23:51 51°9.84 2°40.788 9.3 238 10.3 101830 93
2002-03-21 10:23:56 51°9.839 2°40.782 9.2 233 10.3 101830 93
2002-03-21 10:24:02 51°9.838 2°40.775 10.2 233 10.3 101830 93
2002-03-21 10:24:06 51°9.838 2°40.77 9.2 234 10.3 101830 93
2002-03-21 10:24:11 51°9.837 2°40.764 9.5 238 10.3 101830 93
2002-03-21 10:24:16 51°9.836 2°40.758 9.6 236 10.3 101830 93
2002-03-21 10:24:22 51°9.836 2°40.75 8.7 232 10.3 101830 93
2002-03-21 10:24:27 51°9.835 2°40.744 10.1 233 10.3 101830 93
2002-03-21 10:24:32 51°9.834 2°40.738 9.9 235 10.3 101830 93
2002-03-21 10:24:36 51°9.834 2°40.733 9.3 234 10.3 101830 93
2002-03-21 10:24:42 51°9.833 2°40.725 9.6 237 10.3 101830 93
2002-03-21 10:24:46 51°9.832 2°40.721 8.3 235 10.3 101830 93
2002-03-21 10:24:51 51°9.831 2°40.715 10.3 230 10.3 101830 93
2002-03-21 10:24:56 51°9.831 2°40.709 8.9 231 10.3 101830 93
2002-03-21 10:25:02 51°9.83 2°40.701 9.1 231 10.3 101830 93
2002-03-21 10:25:06 51°9.829 2°40.696 10.7 227 10.3 101830 93
2002-03-21 10:25:12 51°9.828 2°40.689 8.7 231 10.3 101830 93
2002-03-21 10:25:16 51°9.828 2°40.683 10.3 232 10.3 101830 93
2002-03-21 10:25:22 51°9.828 2°40.675 9.5 230 10.3 101830 93
2002-03-21 10:25:26 51°9.827 2°40.671 8.9 224 10.3 101830 93
2002-03-21 10:25:31 51°9.826 2°40.664 9.4 232 10.3 101830 93
2002-03-21 10:25:36 51°9.825 2°40.658 9.5 231 10.3 101830 93
2002-03-21 10:25:42 51°9.824 2°40.65 9.4 224 10.3 101830 93
2002-03-21 10:25:46 51°9.823 2°40.645 9.7 230 10.3 101830 93
2002-03-21 10:25:51 51°9.822 2°40.639 9.8 227 10.3 101830 93
2002-03-21 10:25:56 51°9.821 2°40.633 10.1 226 10.3 101830 93
2002-03-21 10:26:02 51°9.82 2°40.626 8.6 226 10.3 101830 93
2002-03-21 10:26:07 51°9.818 2°40.62 8.4 223 10.3 101830 93
2002-03-21 10:26:11 51°9.818 2°40.615 9.3 226 10.3 101830 93
2002-03-21 10:26:17 51°9.816 2°40.607 9 224 10.3 101830 93
2002-03-21 10:26:22 51°9.815 2°40.601 9.1 224 10.3 101830 93
2002-03-21 10:26:27 51°9.813 2°40.595 8.6 225 10.3 101830 93
2002-03-21 10:26:32 51°9.812 2°40.589 8.8 219 10.3 101830 93
2002-03-21 10:26:36 51°9.811 2°40.585 9.9 224 10.3 101830 93
2002-03-21 10:26:40 51°9.81 2°40.58 8.9 221 10.3 101830 93
2002-03-21 10:26:46 51°9.808 2°40.573 8.8 218 10.3 101830 93
2002-03-21 10:26:51 51°9.806 2°40.567 9.3 223 10.3 101830 93
2002-03-21 10:26:56 51°9.805 2°40.561 9.3 217 10.3 101830 93
2002-03-21 10:27:02 51°9.803 2°40.554 10.4 221 10.3 101830 93
2002-03-21 10:27:06 51°9.802 2°40.549 9.9 224 10.3 101830 93
2002-03-21 10:27:12 51°9.8 2°40.542 9.6 219 10.3 101830 93
2002-03-21 10:27:17 51°9.799 2°40.536 9 315 10.3 101830 93
2002-03-21 10:27:22 51°9.797 2°40.53 8.8 219 10.3 101830 93
2002-03-21 10:27:26 51°9.796 2°40.525 9.2 225 10.3 101830 93
2002-03-21 10:27:32 51°9.794 2°40.518 9.2 220 10.3 101830 93
2002-03-21 10:27:36 51°9.793 2°40.513 10.2 224 10.3 101820 93
2002-03-21 10:27:42 51°9.791 2°40.506 9.3 216 10.3 101820 93
2002-03-21 10:27:46 51°9.79 2°40.501 10.2 224 10.3 101820 93
2002-03-21 10:27:51 51°9.788 2°40.496 10 225 10.3 101820 93
2002-03-21 10:27:56 51°9.787 2°40.49 9.5 220 10.3 101830 93
2002-03-21 10:28:02 51°9.785 2°40.482 9.1 221 10.3 101830 93
2002-03-21 10:28:06 51°9.784 2°40.478 9.8 221 10.3 101830 93
2002-03-21 10:28:11 51°9.783 2°40.472 9.8 218 10.3 101830 93
2002-03-21 10:28:16 51°9.781 2°40.466 8.4 222 10.3 101830 93
2002-03-21 10:28:22 51°9.78 2°40.458 9.1 222 10.3 101830 93
2002-03-21 10:28:26 51°9.778 2°40.454 8.9 218 10.3 101830 93
2002-03-21 10:28:32 51°9.777 2°40.447 8.3 220 10.3 101830 93
2002-03-21 10:28:36 51°9.775 2°40.442 8.6 218 10.3 101830 93
2002-03-21 10:28:42 51°9.774 2°40.435 9.3 224 10.3 101830 93
2002-03-21 10:28:46 51°9.772 2°40.43 9.4 219 10.3 101830 93
2002-03-21 10:28:52 51°9.77 2°40.424 9.9 217 10.3 101830 93
2002-03-21 10:28:56 51°9.769 2°40.419 8.8 215 10.3 101830 93
2002-03-21 10:29:02 51°9.767 2°40.412 8.4 221 10.3 101830 93
2002-03-21 10:29:07 51°9.766 2°40.407 9.3 221 10.3 101820 93
2002-03-21 10:29:12 51°9.764 2°40.402 8.4 217 10.3 101820 93
2002-03-21 10:29:16 51°9.763 2°40.398 9 220 10.3 101820 93
2002-03-21 10:29:20 51°9.762 2°40.393 8.8 217 10.3 101820 93
2002-03-21 10:29:26 51°9.76 2°40.387 8.2 224 10.3 101830 93
2002-03-21 10:29:32 51°9.758 2°40.381 9.6 219 10.3 101830 93
2002-03-21 10:29:36 51°9.757 2°40.377 9 220 10.3 101830 93
2002-03-21 10:29:42 51°9.756 2°40.37 10 226 10.3 101830 93
2002-03-21 10:29:46 51°9.754 2°40.366 8.6 222 10.3 101830 93
2002-03-21 10:29:52 51°9.753 2°40.36 8.6 231 10.3 101830 93
2002-03-21 10:29:57 51°9.752 2°40.355 9.4 226 10.3 101830 93
2002-03-21 10:30:02 51°9.751 2°40.349 8.1 227 10.3 101830 93
2002-03-21 10:30:06 51°9.75 2°40.345 8.6 229 10.3 101830 92
2002-03-21 10:30:11 51°9.749 2°40.34 8.3 230 10.3 101830 92
2002-03-21 10:30:16 51°9.748 2°40.335 9.4 229 10.3 101830 93